Terminal Aerodrome Forecast
Issued by NWS

Home | Current Version | Previous Version | Text Only | Print | Product List | Glossary On
Versions: 1 2 3 4 5 6 7 8 9 10 11 12
000
FTUS45 KREV 281722
TAFTVL
TAF
KTVL 281722Z 2818/2918 05007KT P6SM FEW050 SCT180
     FM282200 VRB05KT P6SM BKN060 BKN180
     FM290100 VRB03KT P6SM VCSH BKN080 OVC180
     FM290400 03002KT P6SM OVC050=

USA.gov is the U.S. government's official web portal to all federal, state and local government web resources and services.